sensor_id;sensor_type;location;lat;lon;timestamp;P1;durP1;ratioP1;P2;durP2;ratioP2
3916;SDS011;1973;50.518;7.318;2024-03-25T00:02:00;12.23;;;3.10;;
3916;SDS011;1973;50.518;7.318;2024-03-25T00:04:26;13.73;;;3.13;;
3916;SDS011;1973;50.518;7.318;2024-03-25T00:06:51;11.33;;;3.43;;
3916;SDS011;1973;50.518;7.318;2024-03-25T00:09:18;10.97;;;2.67;;
3916;SDS011;1973;50.518;7.318;2024-03-25T00:11:43;6.80;;;2.47;;
3916;SDS011;1973;50.518;7.318;2024-03-25T00:14:09;9.97;;;2.50;;
3916;SDS011;1973;50.518;7.318;2024-03-25T00:16:35;11.70;;;3.00;;
3916;SDS011;1973;50.518;7.318;2024-03-25T00:19:00;12.33;;;4.63;;
3916;SDS011;1973;50.518;7.318;2024-03-25T00:21:26;9.47;;;3.23;;
3916;SDS011;1973;50.518;7.318;2024-03-25T00:23:52;9.17;;;3.00;;
3916;SDS011;1973;50.518;7.318;2024-03-25T00:26:18;8.40;;;2.80;;
3916;SDS011;1973;50.518;7.318;2024-03-25T00:28:43;8.40;;;2.23;;
3916;SDS011;1973;50.518;7.318;2024-03-25T00:31:09;9.33;;;2.53;;
3916;SDS011;1973;50.518;7.318;2024-03-25T00:33:35;9.77;;;2.70;;
3916;SDS011;1973;50.518;7.318;2024-03-25T00:36:00;14.20;;;3.37;;
3916;SDS011;1973;50.518;7.318;2024-03-25T00:38:26;10.50;;;2.20;;
3916;SDS011;1973;50.518;7.318;2024-03-25T00:40:52;7.67;;;2.60;;
3916;SDS011;1973;50.518;7.318;2024-03-25T00:43:18;10.03;;;2.53;;
3916;SDS011;1973;50.518;7.318;2024-03-25T00:45:45;10.40;;;2.93;;
3916;SDS011;1973;50.518;7.318;2024-03-25T00:48:11;12.30;;;3.77;;
3916;SDS011;1973;50.518;7.318;2024-03-25T00:50:37;8.10;;;2.93;;
3916;SDS011;1973;50.518;7.318;2024-03-25T00:53:02;9.13;;;2.70;;
3916;SDS011;1973;50.518;7.318;2024-03-25T00:55:28;11.63;;;3.00;;
3916;SDS011;1973;50.518;7.318;2024-03-25T00:57:53;9.30;;;2.83;;
3916;SDS011;1973;50.518;7.318;2024-03-25T01:00:19;8.13;;;2.50;;
3916;SDS011;1973;50.518;7.318;2024-03-25T01:02:45;11.90;;;3.13;;
3916;SDS011;1973;50.518;7.318;2024-03-25T01:05:10;9.80;;;3.27;;
3916;SDS011;1973;50.518;7.318;2024-03-25T01:07:36;6.60;;;2.57;;
3916;SDS011;1973;50.518;7.318;2024-03-25T01:10:02;11.80;;;4.20;;
3916;SDS011;1973;50.518;7.318;2024-03-25T01:12:27;6.50;;;2.00;;
3916;SDS011;1973;50.518;7.318;2024-03-25T01:14:53;12.90;;;3.50;;
3916;SDS011;1973;50.518;7.318;2024-03-25T01:17:18;11.97;;;3.07;;
3916;SDS011;1973;50.518;7.318;2024-03-25T01:19:44;8.20;;;3.00;;
3916;SDS011;1973;50.518;7.318;2024-03-25T01:22:10;15.57;;;4.13;;
3916;SDS011;1973;50.518;7.318;2024-03-25T01:24:36;8.20;;;3.33;;
3916;SDS011;1973;50.518;7.318;2024-03-25T01:27:01;10.70;;;3.13;;
3916;SDS011;1973;50.518;7.318;2024-03-25T01:29:27;14.10;;;3.63;;
3916;SDS011;1973;50.518;7.318;2024-03-25T01:31:53;10.23;;;3.10;;
3916;SDS011;1973;50.518;7.318;2024-03-25T01:34:19;18.77;;;3.43;;
3916;SDS011;1973;50.518;7.318;2024-03-25T01:36:44;9.83;;;3.50;;
3916;SDS011;1973;50.518;7.318;2024-03-25T01:39:10;10.53;;;3.80;;
3916;SDS011;1973;50.518;7.318;2024-03-25T01:41:36;6.93;;;2.50;;
3916;SDS011;1973;50.518;7.318;2024-03-25T01:44:01;11.67;;;3.30;;
3916;SDS011;1973;50.518;7.318;2024-03-25T01:46:30;16.27;;;3.13;;
3916;SDS011;1973;50.518;7.318;2024-03-25T01:48:55;7.70;;;3.17;;
3916;SDS011;1973;50.518;7.318;2024-03-25T01:51:23;9.00;;;3.30;;
3916;SDS011;1973;50.518;7.318;2024-03-25T01:53:49;10.00;;;3.77;;
3916;SDS011;1973;50.518;7.318;2024-03-25T01:56:17;13.47;;;3.67;;
3916;SDS011;1973;50.518;7.318;2024-03-25T01:58:45;10.67;;;4.10;;
3916;SDS011;1973;50.518;7.318;2024-03-25T02:01:11;10.80;;;3.13;;
3916;SDS011;1973;50.518;7.318;2024-03-25T02:03:40;10.03;;;3.60;;
3916;SDS011;1973;50.518;7.318;2024-03-25T02:06:12;9.20;;;3.80;;
3916;SDS011;1973;50.518;7.318;2024-03-25T02:08:40;11.70;;;4.17;;
3916;SDS011;1973;50.518;7.318;2024-03-25T02:11:06;7.60;;;2.87;;
3916;SDS011;1973;50.518;7.318;2024-03-25T02:13:32;8.27;;;2.53;;
3916;SDS011;1973;50.518;7.318;2024-03-25T02:15:58;8.57;;;3.10;;
3916;SDS011;1973;50.518;7.318;2024-03-25T02:18:24;13.20;;;3.53;;
3916;SDS011;1973;50.518;7.318;2024-03-25T02:20:50;9.40;;;3.03;;
3916;SDS011;1973;50.518;7.318;2024-03-25T02:23:15;15.50;;;4.83;;
3916;SDS011;1973;50.518;7.318;2024-03-25T02:25:42;11.13;;;3.20;;
3916;SDS011;1973;50.518;7.318;2024-03-25T02:28:08;18.13;;;3.80;;
3916;SDS011;1973;50.518;7.318;2024-03-25T02:30:34;9.23;;;3.23;;
3916;SDS011;1973;50.518;7.318;2024-03-25T02:33:02;7.40;;;2.97;;
3916;SDS011;1973;50.518;7.318;2024-03-25T02:35:27;9.30;;;2.87;;
3916;SDS011;1973;50.518;7.318;2024-03-25T02:37:54;8.60;;;2.50;;
3916;SDS011;1973;50.518;7.318;2024-03-25T02:40:19;13.43;;;2.90;;
3916;SDS011;1973;50.518;7.318;2024-03-25T02:42:46;9.03;;;3.20;;
3916;SDS011;1973;50.518;7.318;2024-03-25T02:45:12;8.83;;;3.23;;
3916;SDS011;1973;50.518;7.318;2024-03-25T02:47:38;6.60;;;2.73;;
3916;SDS011;1973;50.518;7.318;2024-03-25T02:50:03;8.53;;;2.80;;
3916;SDS011;1973;50.518;7.318;2024-03-25T02:52:29;9.40;;;3.30;;
3916;SDS011;1973;50.518;7.318;2024-03-25T02:54:55;10.27;;;3.50;;
3916;SDS011;1973;50.518;7.318;2024-03-25T02:57:21;9.30;;;2.67;;
3916;SDS011;1973;50.518;7.318;2024-03-25T02:59:47;8.77;;;2.80;;
3916;SDS011;1973;50.518;7.318;2024-03-25T03:02:12;11.17;;;2.70;;
3916;SDS011;1973;50.518;7.318;2024-03-25T03:04:38;13.43;;;2.93;;
3916;SDS011;1973;50.518;7.318;2024-03-25T03:07:03;11.03;;;2.47;;
3916;SDS011;1973;50.518;7.318;2024-03-25T03:09:29;14.17;;;2.87;;
3916;SDS011;1973;50.518;7.318;2024-03-25T03:11:55;8.43;;;3.10;;
3916;SDS011;1973;50.518;7.318;2024-03-25T03:14:21;11.50;;;2.60;;
3916;SDS011;1973;50.518;7.318;2024-03-25T03:16:46;16.53;;;3.20;;
3916;SDS011;1973;50.518;7.318;2024-03-25T03:19:12;7.17;;;2.17;;
3916;SDS011;1973;50.518;7.318;2024-03-25T03:21:38;8.87;;;2.40;;
3916;SDS011;1973;50.518;7.318;2024-03-25T03:24:03;12.70;;;3.53;;
3916;SDS011;1973;50.518;7.318;2024-03-25T03:26:30;7.17;;;3.00;;
3916;SDS011;1973;50.518;7.318;2024-03-25T03:28:58;12.57;;;2.80;;
3916;SDS011;1973;50.518;7.318;2024-03-25T03:31:25;17.07;;;3.13;;
3916;SDS011;1973;50.518;7.318;2024-03-25T03:33:51;9.70;;;3.43;;
3916;SDS011;1973;50.518;7.318;2024-03-25T03:36:18;7.23;;;2.73;;
3916;SDS011;1973;50.518;7.318;2024-03-25T03:38:44;11.03;;;2.90;;
3916;SDS011;1973;50.518;7.318;2024-03-25T03:41:10;11.93;;;3.10;;
3916;SDS011;1973;50.518;7.318;2024-03-25T03:43:36;8.03;;;2.83;;
3916;SDS011;1973;50.518;7.318;2024-03-25T03:46:02;9.53;;;2.60;;
3916;SDS011;1973;50.518;7.318;2024-03-25T03:48:28;8.53;;;3.00;;
3916;SDS011;1973;50.518;7.318;2024-03-25T03:50:54;12.07;;;3.30;;
3916;SDS011;1973;50.518;7.318;2024-03-25T03:53:20;6.93;;;2.90;;
3916;SDS011;1973;50.518;7.318;2024-03-25T03:55:58;10.23;;;3.40;;
3916;SDS011;1973;50.518;7.318;2024-03-25T03:58:25;13.37;;;4.07;;
3916;SDS011;1973;50.518;7.318;2024-03-25T04:00:51;5.60;;;2.60;;
3916;SDS011;1973;50.518;7.318;2024-03-25T04:03:18;10.23;;;3.00;;
3916;SDS011;1973;50.518;7.318;2024-03-25T04:05:44;9.17;;;2.73;;
3916;SDS011;1973;50.518;7.318;2024-03-25T04:08:10;8.70;;;2.30;;
3916;SDS011;1973;50.518;7.318;2024-03-25T04:10:35;10.37;;;2.80;;
3916;SDS011;1973;50.518;7.318;2024-03-25T04:13:02;9.50;;;3.37;;
3916;SDS011;1973;50.518;7.318;2024-03-25T04:15:28;13.20;;;5.23;;
3916;SDS011;1973;50.518;7.318;2024-03-25T04:17:54;11.60;;;3.83;;
3916;SDS011;1973;50.518;7.318;2024-03-25T04:20:20;10.70;;;4.43;;
3916;SDS011;1973;50.518;7.318;2024-03-25T04:22:45;20.47;;;6.90;;
3916;SDS011;1973;50.518;7.318;2024-03-25T04:25:12;19.27;;;6.33;;
3916;SDS011;1973;50.518;7.318;2024-03-25T04:27:42;13.70;;;5.10;;
3916;SDS011;1973;50.518;7.318;2024-03-25T04:30:08;9.87;;;3.50;;
3916;SDS011;1973;50.518;7.318;2024-03-25T04:32:34;15.53;;;3.80;;
3916;SDS011;1973;50.518;7.318;2024-03-25T04:35:01;18.43;;;3.30;;
3916;SDS011;1973;50.518;7.318;2024-03-25T04:37:27;13.43;;;3.00;;
3916;SDS011;1973;50.518;7.318;2024-03-25T04:39:53;7.43;;;3.10;;
3916;SDS011;1973;50.518;7.318;2024-03-25T04:42:19;13.80;;;3.70;;
3916;SDS011;1973;50.518;7.318;2024-03-25T04:44:45;7.83;;;3.03;;
3916;SDS011;1973;50.518;7.318;2024-03-25T04:47:11;17.03;;;3.70;;
3916;SDS011;1973;50.518;7.318;2024-03-25T04:49:36;9.23;;;3.33;;
3916;SDS011;1973;50.518;7.318;2024-03-25T04:52:03;7.90;;;2.70;;
3916;SDS011;1973;50.518;7.318;2024-03-25T04:54:29;8.27;;;2.50;;
3916;SDS011;1973;50.518;7.318;2024-03-25T04:56:55;9.03;;;2.80;;
3916;SDS011;1973;50.518;7.318;2024-03-25T04:59:21;8.00;;;2.97;;
3916;SDS011;1973;50.518;7.318;2024-03-25T05:01:46;7.90;;;3.07;;
3916;SDS011;1973;50.518;7.318;2024-03-25T05:04:12;9.43;;;2.67;;
3916;SDS011;1973;50.518;7.318;2024-03-25T05:06:38;10.43;;;2.83;;
3916;SDS011;1973;50.518;7.318;2024-03-25T05:09:03;9.33;;;3.03;;
3916;SDS011;1973;50.518;7.318;2024-03-25T05:11:31;14.57;;;5.97;;
3916;SDS011;1973;50.518;7.318;2024-03-25T05:13:57;16.43;;;4.70;;
3916;SDS011;1973;50.518;7.318;2024-03-25T05:16:23;12.97;;;4.33;;
3916;SDS011;1973;50.518;7.318;2024-03-25T05:18:48;10.23;;;4.17;;
3916;SDS011;1973;50.518;7.318;2024-03-25T05:21:14;7.43;;;4.20;;
3916;SDS011;1973;50.518;7.318;2024-03-25T05:23:39;9.57;;;3.10;;
3916;SDS011;1973;50.518;7.318;2024-03-25T05:26:05;13.13;;;3.37;;
3916;SDS011;1973;50.518;7.318;2024-03-25T05:28:30;10.50;;;2.83;;
3916;SDS011;1973;50.518;7.318;2024-03-25T05:30:56;9.53;;;3.20;;
3916;SDS011;1973;50.518;7.318;2024-03-25T05:33:22;12.57;;;4.67;;
3916;SDS011;1973;50.518;7.318;2024-03-25T05:35:47;10.50;;;3.83;;
3916;SDS011;1973;50.518;7.318;2024-03-25T05:38:13;9.03;;;3.67;;
3916;SDS011;1973;50.518;7.318;2024-03-25T05:40:38;12.13;;;3.10;;
3916;SDS011;1973;50.518;7.318;2024-03-25T05:43:04;6.50;;;2.87;;
3916;SDS011;1973;50.518;7.318;2024-03-25T05:45:29;14.07;;;3.50;;
3916;SDS011;1973;50.518;7.318;2024-03-25T05:47:55;9.10;;;3.53;;
3916;SDS011;1973;50.518;7.318;2024-03-25T05:50:21;9.37;;;3.60;;
3916;SDS011;1973;50.518;7.318;2024-03-25T05:52:46;11.40;;;3.50;;
3916;SDS011;1973;50.518;7.318;2024-03-25T05:55:12;6.63;;;3.13;;
3916;SDS011;1973;50.518;7.318;2024-03-25T05:57:37;13.03;;;3.40;;
3916;SDS011;1973;50.518;7.318;2024-03-25T06:00:03;9.80;;;3.93;;
3916;SDS011;1973;50.518;7.318;2024-03-25T06:02:29;7.60;;;3.00;;
3916;SDS011;1973;50.518;7.318;2024-03-25T06:04:55;7.53;;;2.47;;
3916;SDS011;1973;50.518;7.318;2024-03-25T06:07:22;6.07;;;3.10;;
3916;SDS011;1973;50.518;7.318;2024-03-25T06:09:47;5.20;;;3.00;;
3916;SDS011;1973;50.518;7.318;2024-03-25T06:12:13;8.80;;;3.10;;
3916;SDS011;1973;50.518;7.318;2024-03-25T06:14:39;8.63;;;3.57;;
3916;SDS011;1973;50.518;7.318;2024-03-25T06:17:05;9.33;;;3.37;;
3916;SDS011;1973;50.518;7.318;2024-03-25T06:19:30;7.40;;;3.20;;
3916;SDS011;1973;50.518;7.318;2024-03-25T06:21:56;16.53;;;6.40;;
3916;SDS011;1973;50.518;7.318;2024-03-25T06:24:21;9.10;;;5.27;;
3916;SDS011;1973;50.518;7.318;2024-03-25T06:26:47;9.30;;;4.60;;
3916;SDS011;1973;50.518;7.318;2024-03-25T06:29:13;13.80;;;5.77;;
3916;SDS011;1973;50.518;7.318;2024-03-25T06:31:38;13.47;;;4.63;;
3916;SDS011;1973;50.518;7.318;2024-03-25T06:34:22;13.87;;;4.50;;
3916;SDS011;1973;50.518;7.318;2024-03-25T06:36:48;15.07;;;5.37;;
3916;SDS011;1973;50.518;7.318;2024-03-25T06:39:14;7.93;;;5.27;;
3916;SDS011;1973;50.518;7.318;2024-03-25T06:41:40;10.53;;;3.60;;
3916;SDS011;1973;50.518;7.318;2024-03-25T06:44:06;10.00;;;4.67;;
3916;SDS011;1973;50.518;7.318;2024-03-25T06:46:32;8.20;;;3.47;;
3916;SDS011;1973;50.518;7.318;2024-03-25T06:48:58;5.70;;;3.47;;
3916;SDS011;1973;50.518;7.318;2024-03-25T06:51:23;13.07;;;3.60;;
3916;SDS011;1973;50.518;7.318;2024-03-25T06:53:49;15.93;;;4.03;;
3916;SDS011;1973;50.518;7.318;2024-03-25T06:56:15;12.70;;;3.47;;
3916;SDS011;1973;50.518;7.318;2024-03-25T06:58:41;7.13;;;3.17;;
3916;SDS011;1973;50.518;7.318;2024-03-25T07:01:08;7.70;;;3.47;;
3916;SDS011;1973;50.518;7.318;2024-03-25T07:03:36;14.33;;;5.70;;
3916;SDS011;1973;50.518;7.318;2024-03-25T07:06:02;17.70;;;7.10;;
3916;SDS011;1973;50.518;7.318;2024-03-25T07:08:28;23.13;;;5.57;;
3916;SDS011;1973;50.518;7.318;2024-03-25T07:10:55;11.70;;;5.13;;
3916;SDS011;1973;50.518;7.318;2024-03-25T07:13:21;14.93;;;4.40;;
3916;SDS011;1973;50.518;7.318;2024-03-25T07:15:46;8.77;;;3.70;;
3916;SDS011;1973;50.518;7.318;2024-03-25T07:18:12;7.50;;;3.30;;
3916;SDS011;1973;50.518;7.318;2024-03-25T07:20:38;7.03;;;2.77;;
3916;SDS011;1973;50.518;7.318;2024-03-25T07:23:08;6.53;;;3.00;;
3916;SDS011;1973;50.518;7.318;2024-03-25T07:25:34;10.43;;;3.60;;
3916;SDS011;1973;50.518;7.318;2024-03-25T07:27:59;8.93;;;3.50;;
3916;SDS011;1973;50.518;7.318;2024-03-25T07:30:25;6.27;;;3.40;;
3916;SDS011;1973;50.518;7.318;2024-03-25T07:32:54;6.50;;;3.90;;
3916;SDS011;1973;50.518;7.318;2024-03-25T07:35:19;9.37;;;4.30;;
3916;SDS011;1973;50.518;7.318;2024-03-25T07:37:45;17.70;;;7.07;;
3916;SDS011;1973;50.518;7.318;2024-03-25T07:40:11;12.47;;;4.00;;
3916;SDS011;1973;50.518;7.318;2024-03-25T07:42:39;17.80;;;4.53;;
3916;SDS011;1973;50.518;7.318;2024-03-25T07:45:05;12.57;;;4.07;;
3916;SDS011;1973;50.518;7.318;2024-03-25T07:47:31;9.23;;;3.60;;
3916;SDS011;1973;50.518;7.318;2024-03-25T07:49:58;10.17;;;3.63;;
3916;SDS011;1973;50.518;7.318;2024-03-25T07:52:26;9.87;;;5.37;;
3916;SDS011;1973;50.518;7.318;2024-03-25T07:54:52;10.53;;;6.20;;
3916;SDS011;1973;50.518;7.318;2024-03-25T07:57:18;12.30;;;5.60;;
3916;SDS011;1973;50.518;7.318;2024-03-25T07:59:46;12.67;;;5.40;;
3916;SDS011;1973;50.518;7.318;2024-03-25T08:02:12;10.67;;;5.57;;
3916;SDS011;1973;50.518;7.318;2024-03-25T08:04:37;8.03;;;4.60;;
3916;SDS011;1973;50.518;7.318;2024-03-25T08:07:03;8.50;;;4.40;;
3916;SDS011;1973;50.518;7.318;2024-03-25T08:09:29;6.10;;;4.60;;
3916;SDS011;1973;50.518;7.318;2024-03-25T08:11:54;8.00;;;5.20;;
3916;SDS011;1973;50.518;7.318;2024-03-25T08:14:20;11.70;;;5.97;;
3916;SDS011;1973;50.518;7.318;2024-03-25T08:16:45;10.50;;;5.67;;
3916;SDS011;1973;50.518;7.318;2024-03-25T08:19:11;8.73;;;4.03;;
3916;SDS011;1973;50.518;7.318;2024-03-25T08:21:37;8.80;;;5.10;;
3916;SDS011;1973;50.518;7.318;2024-03-25T08:24:02;17.83;;;9.20;;
3916;SDS011;1973;50.518;7.318;2024-03-25T08:26:28;13.27;;;5.33;;
3916;SDS011;1973;50.518;7.318;2024-03-25T08:28:53;19.37;;;5.03;;
3916;SDS011;1973;50.518;7.318;2024-03-25T08:31:19;11.80;;;4.10;;
3916;SDS011;1973;50.518;7.318;2024-03-25T08:33:45;12.70;;;6.03;;
3916;SDS011;1973;50.518;7.318;2024-03-25T08:36:10;16.27;;;3.90;;
3916;SDS011;1973;50.518;7.318;2024-03-25T08:38:36;8.60;;;3.30;;
3916;SDS011;1973;50.518;7.318;2024-03-25T08:41:01;8.23;;;2.90;;
3916;SDS011;1973;50.518;7.318;2024-03-25T08:43:27;5.57;;;3.10;;
3916;SDS011;1973;50.518;7.318;2024-03-25T08:45:53;7.60;;;2.40;;
3916;SDS011;1973;50.518;7.318;2024-03-25T08:48:18;11.40;;;3.47;;
3916;SDS011;1973;50.518;7.318;2024-03-25T08:50:44;13.10;;;2.67;;
3916;SDS011;1973;50.518;7.318;2024-03-25T08:53:09;9.20;;;3.57;;
3916;SDS011;1973;50.518;7.318;2024-03-25T08:55:35;7.33;;;2.40;;
3916;SDS011;1973;50.518;7.318;2024-03-25T08:58:00;9.13;;;2.50;;
3916;SDS011;1973;50.518;7.318;2024-03-25T09:00:26;9.93;;;2.50;;
3916;SDS011;1973;50.518;7.318;2024-03-25T09:02:52;8.30;;;2.97;;
3916;SDS011;1973;50.518;7.318;2024-03-25T09:05:18;10.20;;;3.70;;
3916;SDS011;1973;50.518;7.318;2024-03-25T09:07:45;8.20;;;3.10;;
3916;SDS011;1973;50.518;7.318;2024-03-25T09:10:11;10.30;;;3.30;;
3916;SDS011;1973;50.518;7.318;2024-03-25T09:12:55;6.77;;;3.00;;
3916;SDS011;1973;50.518;7.318;2024-03-25T09:15:20;8.33;;;3.30;;
3916;SDS011;1973;50.518;7.318;2024-03-25T09:17:46;8.17;;;2.60;;
3916;SDS011;1973;50.518;7.318;2024-03-25T09:20:11;7.60;;;2.33;;
3916;SDS011;1973;50.518;7.318;2024-03-25T09:22:45;6.97;;;2.90;;
3916;SDS011;1973;50.518;7.318;2024-03-25T09:25:12;6.20;;;1.90;;
3916;SDS011;1973;50.518;7.318;2024-03-25T09:27:38;5.20;;;2.20;;
3916;SDS011;1973;50.518;7.318;2024-03-25T09:30:05;6.93;;;2.43;;
3916;SDS011;1973;50.518;7.318;2024-03-25T09:32:32;9.20;;;2.43;;
3916;SDS011;1973;50.518;7.318;2024-03-25T09:34:58;8.97;;;2.90;;
3916;SDS011;1973;50.518;7.318;2024-03-25T09:37:24;10.03;;;2.50;;
3916;SDS011;1973;50.518;7.318;2024-03-25T09:39:50;6.70;;;2.90;;
3916;SDS011;1973;50.518;7.318;2024-03-25T09:42:16;7.30;;;2.70;;
3916;SDS011;1973;50.518;7.318;2024-03-25T09:44:50;8.77;;;2.90;;
3916;SDS011;1973;50.518;7.318;2024-03-25T09:47:16;14.80;;;6.30;;
3916;SDS011;1973;50.518;7.318;2024-03-25T09:49:42;6.10;;;3.40;;
3916;SDS011;1973;50.518;7.318;2024-03-25T09:52:09;9.73;;;3.57;;
3916;SDS011;1973;50.518;7.318;2024-03-25T09:54:34;6.33;;;3.00;;
3916;SDS011;1973;50.518;7.318;2024-03-25T09:57:00;6.43;;;3.03;;
3916;SDS011;1973;50.518;7.318;2024-03-25T09:59:27;8.03;;;2.80;;
3916;SDS011;1973;50.518;7.318;2024-03-25T10:01:54;7.03;;;2.83;;
3916;SDS011;1973;50.518;7.318;2024-03-25T10:04:19;7.70;;;3.10;;
3916;SDS011;1973;50.518;7.318;2024-03-25T10:06:45;8.87;;;3.10;;
3916;SDS011;1973;50.518;7.318;2024-03-25T10:09:11;6.63;;;2.10;;
3916;SDS011;1973;50.518;7.318;2024-03-25T10:11:36;6.40;;;3.13;;
3916;SDS011;1973;50.518;7.318;2024-03-25T10:14:02;7.40;;;2.90;;
3916;SDS011;1973;50.518;7.318;2024-03-25T10:16:28;9.13;;;3.37;;
3916;SDS011;1973;50.518;7.318;2024-03-25T10:18:54;8.87;;;2.90;;
3916;SDS011;1973;50.518;7.318;2024-03-25T10:21:22;11.43;;;5.83;;
3916;SDS011;1973;50.518;7.318;2024-03-25T10:23:48;7.90;;;4.33;;
3916;SDS011;1973;50.518;7.318;2024-03-25T10:26:30;12.93;;;3.73;;
3916;SDS011;1973;50.518;7.318;2024-03-25T10:29:06;8.10;;;3.67;;
3916;SDS011;1973;50.518;7.318;2024-03-25T10:31:33;5.23;;;2.67;;
3916;SDS011;1973;50.518;7.318;2024-03-25T10:33:59;5.90;;;2.97;;
3916;SDS011;1973;50.518;7.318;2024-03-25T10:36:24;7.73;;;2.80;;
3916;SDS011;1973;50.518;7.318;2024-03-25T10:38:57;9.60;;;3.20;;
3916;SDS011;1973;50.518;7.318;2024-03-25T10:41:32;8.10;;;2.47;;
3916;SDS011;1973;50.518;7.318;2024-03-25T10:44:00;7.80;;;3.20;;
3916;SDS011;1973;50.518;7.318;2024-03-25T10:46:31;6.30;;;2.97;;
3916;SDS011;1973;50.518;7.318;2024-03-25T10:49:01;9.50;;;3.80;;
3916;SDS011;1973;50.518;7.318;2024-03-25T10:51:33;7.10;;;3.80;;
3916;SDS011;1973;50.518;7.318;2024-03-25T10:54:00;10.30;;;3.87;;
3916;SDS011;1973;50.518;7.318;2024-03-25T10:56:28;9.67;;;3.37;;
3916;SDS011;1973;50.518;7.318;2024-03-25T10:58:54;10.63;;;4.40;;
3916;SDS011;1973;50.518;7.318;2024-03-25T11:01:21;7.63;;;3.23;;
3916;SDS011;1973;50.518;7.318;2024-03-25T11:03:47;8.40;;;2.30;;
3916;SDS011;1973;50.518;7.318;2024-03-25T11:06:14;5.00;;;2.17;;
3916;SDS011;1973;50.518;7.318;2024-03-25T11:08:42;9.50;;;4.40;;
3916;SDS011;1973;50.518;7.318;2024-03-25T11:11:12;12.80;;;4.33;;
3916;SDS011;1973;50.518;7.318;2024-03-25T11:13:38;6.20;;;4.20;;
3916;SDS011;1973;50.518;7.318;2024-03-25T11:16:05;13.53;;;4.23;;
3916;SDS011;1973;50.518;7.318;2024-03-25T11:18:31;8.67;;;3.23;;
3916;SDS011;1973;50.518;7.318;2024-03-25T11:21:06;8.47;;;3.60;;
3916;SDS011;1973;50.518;7.318;2024-03-25T11:23:43;5.90;;;2.87;;
3916;SDS011;1973;50.518;7.318;2024-03-25T11:26:24;4.03;;;2.57;;
3916;SDS011;1973;50.518;7.318;2024-03-25T11:28:51;4.53;;;2.60;;
3916;SDS011;1973;50.518;7.318;2024-03-25T11:31:20;5.10;;;2.57;;
3916;SDS011;1973;50.518;7.318;2024-03-25T11:33:47;6.27;;;2.70;;
3916;SDS011;1973;50.518;7.318;2024-03-25T11:36:13;5.00;;;2.47;;
3916;SDS011;1973;50.518;7.318;2024-03-25T11:38:38;4.67;;;2.77;;
3916;SDS011;1973;50.518;7.318;2024-03-25T11:41:07;5.33;;;2.43;;
3916;SDS011;1973;50.518;7.318;2024-03-25T11:43:33;5.50;;;3.57;;
3916;SDS011;1973;50.518;7.318;2024-03-25T11:45:59;4.70;;;3.10;;
3916;SDS011;1973;50.518;7.318;2024-03-25T11:48:24;6.67;;;2.47;;
3916;SDS011;1973;50.518;7.318;2024-03-25T11:50:51;5.57;;;2.57;;
3916;SDS011;1973;50.518;7.318;2024-03-25T11:53:16;4.97;;;3.27;;
3916;SDS011;1973;50.518;7.318;2024-03-25T11:55:48;4.23;;;2.50;;
3916;SDS011;1973;50.518;7.318;2024-03-25T11:58:14;7.87;;;2.80;;
3916;SDS011;1973;50.518;7.318;2024-03-25T12:00:43;4.20;;;2.37;;
3916;SDS011;1973;50.518;7.318;2024-03-25T12:03:10;5.00;;;2.40;;
3916;SDS011;1973;50.518;7.318;2024-03-25T12:05:39;5.57;;;2.60;;
3916;SDS011;1973;50.518;7.318;2024-03-25T12:08:07;5.97;;;2.60;;
3916;SDS011;1973;50.518;7.318;2024-03-25T12:10:34;4.20;;;2.53;;
3916;SDS011;1973;50.518;7.318;2024-03-25T12:13:18;4.60;;;2.73;;
3916;SDS011;1973;50.518;7.318;2024-03-25T12:15:45;8.70;;;3.00;;
3916;SDS011;1973;50.518;7.318;2024-03-25T12:18:11;4.70;;;2.27;;
3916;SDS011;1973;50.518;7.318;2024-03-25T12:20:36;3.20;;;2.50;;
3916;SDS011;1973;50.518;7.318;2024-03-25T12:23:04;5.00;;;2.40;;
3916;SDS011;1973;50.518;7.318;2024-03-25T12:25:29;7.90;;;2.43;;
3916;SDS011;1973;50.518;7.318;2024-03-25T12:27:55;4.83;;;2.30;;
3916;SDS011;1973;50.518;7.318;2024-03-25T12:30:21;6.77;;;2.47;;
3916;SDS011;1973;50.518;7.318;2024-03-25T12:32:46;3.80;;;3.20;;
3916;SDS011;1973;50.518;7.318;2024-03-25T12:35:13;4.97;;;2.40;;
3916;SDS011;1973;50.518;7.318;2024-03-25T12:37:41;5.20;;;2.47;;
3916;SDS011;1973;50.518;7.318;2024-03-25T12:40:09;6.47;;;2.50;;
3916;SDS011;1973;50.518;7.318;2024-03-25T12:42:36;4.33;;;2.10;;
3916;SDS011;1973;50.518;7.318;2024-03-25T12:45:02;4.73;;;2.60;;
3916;SDS011;1973;50.518;7.318;2024-03-25T12:47:28;6.50;;;2.80;;
3916;SDS011;1973;50.518;7.318;2024-03-25T12:49:54;4.13;;;2.80;;
3916;SDS011;1973;50.518;7.318;2024-03-25T12:52:20;6.17;;;3.10;;
3916;SDS011;1973;50.518;7.318;2024-03-25T12:54:46;6.43;;;3.00;;
3916;SDS011;1973;50.518;7.318;2024-03-25T12:57:12;7.37;;;3.00;;
3916;SDS011;1973;50.518;7.318;2024-03-25T12:59:37;5.07;;;2.30;;
3916;SDS011;1973;50.518;7.318;2024-03-25T13:02:03;5.40;;;3.10;;
3916;SDS011;1973;50.518;7.318;2024-03-25T13:04:29;4.57;;;2.43;;
3916;SDS011;1973;50.518;7.318;2024-03-25T13:06:54;4.60;;;2.40;;
3916;SDS011;1973;50.518;7.318;2024-03-25T13:09:20;6.10;;;2.40;;
3916;SDS011;1973;50.518;7.318;2024-03-25T13:11:46;5.97;;;2.30;;
3916;SDS011;1973;50.518;7.318;2024-03-25T13:14:12;3.43;;;2.63;;
3916;SDS011;1973;50.518;7.318;2024-03-25T13:16:38;4.93;;;2.43;;
3916;SDS011;1973;50.518;7.318;2024-03-25T13:19:04;3.20;;;2.13;;
3916;SDS011;1973;50.518;7.318;2024-03-25T13:21:30;7.23;;;2.70;;
3916;SDS011;1973;50.518;7.318;2024-03-25T13:23:55;4.53;;;2.40;;
3916;SDS011;1973;50.518;7.318;2024-03-25T13:26:21;4.33;;;2.50;;
3916;SDS011;1973;50.518;7.318;2024-03-25T13:28:47;4.57;;;2.43;;
3916;SDS011;1973;50.518;7.318;2024-03-25T13:31:12;4.10;;;2.37;;
3916;SDS011;1973;50.518;7.318;2024-03-25T13:33:38;4.93;;;2.50;;
3916;SDS011;1973;50.518;7.318;2024-03-25T13:36:05;4.23;;;2.20;;
3916;SDS011;1973;50.518;7.318;2024-03-25T13:38:31;5.33;;;3.00;;
3916;SDS011;1973;50.518;7.318;2024-03-25T13:40:57;6.37;;;2.77;;
3916;SDS011;1973;50.518;7.318;2024-03-25T13:43:24;2.63;;;1.57;;
3916;SDS011;1973;50.518;7.318;2024-03-25T13:45:50;5.57;;;4.00;;
3916;SDS011;1973;50.518;7.318;2024-03-25T13:48:15;3.33;;;2.20;;
3916;SDS011;1973;50.518;7.318;2024-03-25T13:50:41;4.07;;;2.13;;
3916;SDS011;1973;50.518;7.318;2024-03-25T13:53:07;4.70;;;2.07;;
3916;SDS011;1973;50.518;7.318;2024-03-25T13:55:34;5.40;;;2.63;;
3916;SDS011;1973;50.518;7.318;2024-03-25T13:57:59;4.43;;;2.90;;
3916;SDS011;1973;50.518;7.318;2024-03-25T14:00:25;4.57;;;2.47;;
3916;SDS011;1973;50.518;7.318;2024-03-25T14:02:56;4.93;;;2.10;;
3916;SDS011;1973;50.518;7.318;2024-03-25T14:05:22;4.50;;;2.07;;
3916;SDS011;1973;50.518;7.318;2024-03-25T14:07:48;3.43;;;1.60;;
3916;SDS011;1973;50.518;7.318;2024-03-25T14:10:15;6.73;;;3.27;;
3916;SDS011;1973;50.518;7.318;2024-03-25T14:12:40;5.00;;;1.90;;
3916;SDS011;1973;50.518;7.318;2024-03-25T14:15:07;9.17;;;4.40;;
3916;SDS011;1973;50.518;7.318;2024-03-25T14:17:33;5.90;;;2.07;;
3916;SDS011;1973;50.518;7.318;2024-03-25T14:19:58;4.87;;;2.13;;
3916;SDS011;1973;50.518;7.318;2024-03-25T14:22:24;4.80;;;2.03;;
3916;SDS011;1973;50.518;7.318;2024-03-25T14:24:49;2.70;;;1.40;;
3916;SDS011;1973;50.518;7.318;2024-03-25T14:27:17;3.90;;;1.80;;
3916;SDS011;1973;50.518;7.318;2024-03-25T14:29:43;3.73;;;1.87;;
3916;SDS011;1973;50.518;7.318;2024-03-25T14:32:08;2.30;;;1.20;;
3916;SDS011;1973;50.518;7.318;2024-03-25T14:34:34;2.43;;;1.23;;
3916;SDS011;1973;50.518;7.318;2024-03-25T14:37:00;4.03;;;1.73;;
3916;SDS011;1973;50.518;7.318;2024-03-25T14:39:28;6.63;;;1.93;;
3916;SDS011;1973;50.518;7.318;2024-03-25T14:41:54;4.23;;;1.80;;
3916;SDS011;1973;50.518;7.318;2024-03-25T14:44:20;3.10;;;1.77;;
3916;SDS011;1973;50.518;7.318;2024-03-25T14:46:46;5.80;;;1.90;;
3916;SDS011;1973;50.518;7.318;2024-03-25T14:49:12;4.77;;;2.50;;
3916;SDS011;1973;50.518;7.318;2024-03-25T14:51:37;4.60;;;2.17;;
3916;SDS011;1973;50.518;7.318;2024-03-25T14:54:03;2.80;;;1.40;;
3916;SDS011;1973;50.518;7.318;2024-03-25T14:56:29;4.53;;;2.20;;
3916;SDS011;1973;50.518;7.318;2024-03-25T14:58:55;3.50;;;2.00;;
3916;SDS011;1973;50.518;7.318;2024-03-25T15:01:21;3.33;;;1.87;;
3916;SDS011;1973;50.518;7.318;2024-03-25T15:03:46;4.53;;;1.47;;
3916;SDS011;1973;50.518;7.318;2024-03-25T15:06:12;3.47;;;2.00;;